Time;durP1;ratioP1;P1;durP2;ratioP2;P2;SDS_P1;SDS_P2;PMS_P1;PMS_P2;Temp;Humidity;BMP_temperature;BMP_pressure;BME280_temperature;BME280_humidity;BME280_pressure;Samples;Min_cycle;Max_cycle;Signal;HPM_P1;HPM_P2
2022/03/09 00:07:29;;;;;;;5.10;2.80;;;5.40;93.60;;;;;;20588523;28;20047;-47
2022/03/09 00:17:31;;;;;;;6.95;2.92;;;5.30;94.50;;;;;;20613576;28;20042;-47
2022/03/09 00:27:32;;;;;;;5.75;2.13;;;5.20;94.40;;;;;;20592628;28;20057;-47
2022/03/09 00:37:34;;;;;;;5.40;2.50;;;5.10;94.50;;;;;;20603601;28;20349;-47
2022/03/09 00:47:36;;;;;;;6.75;3.28;;;5.00;94.40;;;;;;20545591;28;20069;-46
2022/03/09 00:57:37;;;;;;;5.05;2.78;;;4.90;94.80;;;;;;20466106;28;20050;-48
2022/03/09 01:07:38;;;;;;;7.72;2.22;;;4.90;94.80;;;;;;20523117;28;20464;-47
2022/03/09 01:17:39;;;;;;;8.93;3.70;;;4.80;94.80;;;;;;20511000;28;20088;-47
2022/03/09 01:27:41;;;;;;;10.32;2.47;;;4.70;95.30;;;;;;20498753;28;20098;-46
2022/03/09 01:37:42;;;;;;;6.25;2.58;;;4.60;95.80;;;;;;20522572;28;20457;-46
2022/03/09 01:47:43;;;;;;;7.82;2.40;;;4.60;96.60;;;;;;20506098;28;20067;-47
2022/03/09 01:57:44;;;;;;;4.70;2.00;;;4.40;96.60;;;;;;20528540;28;20508;-47
2022/03/09 02:18:07;;;;;;;7.93;2.70;;;4.20;97.60;;;;;;20604335;28;20042;-46
2022/03/09 02:28:08;;;;;;;4.55;2.17;;;4.20;98.50;;;;;;20520259;28;20578;-47
2022/03/09 02:38:09;;;;;;;5.47;1.75;;;4.10;98.60;;;;;;20514240;28;20043;-52
2022/03/09 02:48:11;;;;;;;6.13;2.47;;;4.00;98.60;;;;;;20525418;28;20356;-46
2022/03/09 02:58:13;;;;;;;6.50;2.03;;;3.90;99.40;;;;;;20523174;28;20230;-47
2022/03/09 03:08:14;;;;;;;6.07;2.22;;;3.90;99.30;;;;;;20525930;28;20042;-46
2022/03/09 03:18:15;;;;;;;5.55;2.38;;;3.70;99.80;;;;;;20529130;28;20039;-47
2022/03/09 03:28:16;;;;;;;6.40;3.05;;;3.60;99.90;;;;;;20536150;28;20577;-47
2022/03/09 03:38:18;;;;;;;5.70;2.55;;;3.60;99.90;;;;;;20556798;28;20051;-47
2022/03/09 03:48:19;;;;;;;6.68;2.80;;;3.50;99.90;;;;;;20564331;28;20561;-47
2022/03/09 03:58:20;;;;;;;4.30;1.63;;;3.40;99.90;;;;;;20558202;28;20497;-47
2022/03/09 04:08:22;;;;;;;6.63;2.25;;;3.30;99.90;;;;;;20543923;28;20045;-47
2022/03/09 04:18:23;;;;;;;4.20;1.80;;;3.20;99.90;;;;;;20548323;28;20331;-46
2022/03/09 04:28:24;;;;;;;5.43;1.85;;;3.20;99.90;;;;;;20572569;28;20050;-50
2022/03/09 04:38:26;;;;;;;6.45;2.53;;;3.10;99.90;;;;;;20561789;28;20058;-47
2022/03/09 04:48:27;;;;;;;9.70;2.42;;;3.20;99.90;;;;;;20519215;28;20049;-46
2022/03/09 04:58:29;;;;;;;4.70;2.03;;;3.10;99.90;;;;;;20532605;28;20043;-47
2022/03/09 05:08:30;;;;;;;7.43;2.25;;;3.10;99.90;;;;;;20516155;28;20053;-46
2022/03/09 05:18:32;;;;;;;6.68;2.20;;;2.90;99.90;;;;;;20520681;28;20066;-47
2022/03/09 05:28:33;;;;;;;5.85;2.20;;;2.90;99.90;;;;;;20524023;28;20069;-46
2022/03/09 05:38:35;;;;;;;6.53;2.40;;;3.00;99.90;;;;;;20552093;28;20035;-47
2022/03/09 05:48:36;;;;;;;8.15;2.47;;;2.80;99.90;;;;;;20627712;28;20170;-47
2022/03/09 05:58:37;;;;;;;8.45;2.72;;;2.80;99.90;;;;;;20604981;28;20061;-46
2022/03/09 06:08:38;;;;;;;6.03;1.80;;;2.80;99.90;;;;;;20626659;28;20053;-47
2022/03/09 06:18:39;;;;;;;9.02;2.63;;;2.70;99.90;;;;;;20608648;28;20049;-46
2022/03/09 06:28:41;;;;;;;8.40;3.03;;;2.60;99.90;;;;;;20614780;28;20690;-46
2022/03/09 06:38:42;;;;;;;7.20;3.10;;;2.60;99.90;;;;;;20604814;28;20461;-46
2022/03/09 06:48:44;;;;;;;4.38;2.17;;;2.60;99.90;;;;;;20530633;28;20046;-46
2022/03/09 06:58:46;;;;;;;6.93;2.28;;;2.70;99.90;;;;;;20534299;28;20083;-46
2022/03/09 07:08:47;;;;;;;7.97;2.55;;;2.80;99.90;;;;;;20414657;28;20161;-46
2022/03/09 07:18:48;;;;;;;5.22;2.10;;;3.00;99.90;;;;;;20400980;28;20332;-46
2022/03/09 07:28:50;;;;;;;7.72;2.08;;;3.20;99.90;;;;;;20392972;28;20047;-46
2022/03/09 07:38:51;;;;;;;8.77;3.17;;;3.40;99.90;;;;;;20393648;28;20048;-46
2022/03/09 07:48:52;;;;;;;7.05;3.15;;;3.60;99.90;;;;;;20421761;28;20054;-46
2022/03/09 07:58:53;;;;;;;3.92;2.00;;;3.90;99.90;;;;;;20417439;28;20039;-46
2022/03/09 08:08:54;;;;;;;10.05;3.53;;;4.20;99.80;;;;;;20402848;28;20047;-47
2022/03/09 08:18:55;;;;;;;6.43;2.95;;;4.50;99.90;;;;;;20411084;28;20040;-47
2022/03/09 08:28:56;;;;;;;6.72;2.75;;;4.80;99.70;;;;;;20413807;28;20055;-46
2022/03/09 08:38:57;;;;;;;9.65;3.47;;;5.20;99.00;;;;;;20405060;28;20047;-46
2022/03/09 08:48:58;;;;;;;12.38;3.67;;;5.60;98.90;;;;;;20409012;28;20555;-46
2022/03/09 08:59:00;;;;;;;9.05;3.92;;;6.10;96.70;;;;;;20412230;28;20046;-46
2022/03/09 09:09:01;;;;;;;9.43;3.00;;;6.60;96.60;;;;;;20420647;28;20059;-47
2022/03/09 09:19:03;;;;;;;10.13;3.90;;;6.80;95.30;;;;;;20429532;28;20035;-46
2022/03/09 09:29:04;;;;;;;8.68;3.63;;;7.10;95.50;;;;;;20425608;28;20050;-46
2022/03/09 09:39:05;;;;;;;9.02;3.85;;;7.50;95.00;;;;;;20424193;28;20058;-47
2022/03/09 09:49:09;;;;;;;11.18;4.75;;;7.80;94.70;;;;;;20424592;28;20052;-47
2022/03/09 09:59:11;;;;;;;8.00;3.40;;;8.20;95.00;;;;;;20426187;28;20040;-47
2022/03/09 10:09:13;;;;;;;9.23;4.22;;;8.50;94.30;;;;;;20412599;28;20047;-47
2022/03/09 10:19:14;;;;;;;10.50;3.50;;;8.70;95.30;;;;;;20402004;28;20047;-47
2022/03/09 10:29:19;;;;;;;8.57;4.35;;;9.00;95.90;;;;;;20416346;28;20047;-47
2022/03/09 10:39:21;;;;;;;8.82;3.58;;;9.20;94.40;;;;;;20404957;28;20296;-47
2022/03/09 10:49:24;;;;;;;8.88;4.13;;;9.60;94.40;;;;;;20411329;28;21486;-47
2022/03/09 10:59:27;;;;;;;11.70;4.75;;;10.00;95.00;;;;;;20420367;28;20031;-47
2022/03/09 11:09:29;;;;;;;8.32;4.30;;;10.60;94.40;;;;;;20417319;28;20044;-47
2022/03/09 11:19:31;;;;;;;12.77;5.38;;;11.10;92.30;;;;;;20432131;28;20535;-47
2022/03/09 11:29:35;;;;;;;12.30;4.25;;;11.60;93.20;;;;;;20448607;28;20043;-48
2022/03/09 11:39:39;;;;;;;14.10;4.93;;;12.50;92.70;;;;;;20450947;28;20054;-47
2022/03/09 11:49:45;;;;;;;12.90;5.40;;;13.20;91.20;;;;;;20444090;28;20043;-47
2022/03/09 12:00:12;;;;;;;12.25;5.07;;;13.70;89.90;;;;;;20453005;28;20051;-47
2022/03/09 12:10:14;;;;;;;13.63;5.53;;;13.60;88.00;;;;;;20445448;28;20044;-48
2022/03/09 12:20:29;;;;;;;16.00;5.85;;;13.80;85.50;;;;;;20453322;28;20502;-48
2022/03/09 12:30:37;;;;;;;13.88;5.78;;;14.70;83.70;;;;;;20462743;28;20308;-47
2022/03/09 12:40:38;;;;;;;;;;;15.00;84.20;;;;;;20487688;28;20055;-47
2022/03/09 12:50:39;;;;;;;16.75;6.95;;;15.50;82.50;;;;;;20472491;28;24589;-47
2022/03/09 13:00:41;;;;;;;14.63;5.60;;;15.30;80.00;;;;;;20438344;28;20044;-47
2022/03/09 13:10:49;;;;;;;19.48;7.65;;;15.50;79.60;;;;;;20438165;28;20055;-48
2022/03/09 13:20:50;;;;;;;17.73;6.05;;;15.60;78.80;;;;;;20430215;28;20071;-47
2022/03/09 13:30:52;;;;;;;15.55;6.25;;;15.90;77.60;;;;;;20436379;28;20055;-47
2022/03/09 13:41:05;;;;;;;16.95;6.32;;;16.30;79.10;;;;;;20433858;28;20111;-47
2022/03/09 13:51:07;;;;;;;15.20;5.82;;;16.10;78.50;;;;;;20434369;28;20055;-47
2022/03/09 14:01:11;;;;;;;13.30;6.70;;;16.50;80.30;;;;;;20422025;28;20039;-47
2022/03/09 14:11:14;;;;;;;14.18;7.18;;;17.10;77.30;;;;;;20413692;28;20140;-47
2022/03/09 14:21:16;;;;;;;18.35;7.38;;;17.20;77.80;;;;;;20461624;28;20033;-48
2022/03/09 14:31:17;;;;;;;13.77;5.80;;;17.60;76.00;;;;;;20486328;28;20931;-47
2022/03/09 14:41:19;;;;;;;20.42;7.22;;;17.40;75.80;;;;;;20479335;28;20503;-47
2022/03/09 14:51:21;;;;;;;24.70;10.00;;;16.50;76.20;;;;;;20494015;28;20268;-47
2022/03/09 15:01:25;;;;;;;29.83;10.45;;;16.00;79.10;;;;;;20480408;28;20047;-47
2022/03/09 15:11:32;;;;;;;16.10;6.25;;;15.30;77.70;;;;;;20419046;28;20053;-47
2022/03/09 15:21:34;;;;;;;14.70;6.40;;;15.20;77.80;;;;;;20489111;28;20039;-47
2022/03/09 15:31:35;;;;;;;15.02;5.70;;;15.00;77.90;;;;;;20496229;28;20047;-47
2022/03/09 15:41:36;;;;;;;21.40;7.85;;;14.60;76.90;;;;;;20492711;28;20039;-47
2022/03/09 15:51:37;;;;;;;43.65;15.85;;;14.40;78.30;;;;;;20424181;28;20523;-47
2022/03/09 16:01:39;;;;;;;15.18;6.22;;;14.20;78.90;;;;;;20436626;28;20051;-47
2022/03/09 16:11:40;;;;;;;19.25;7.90;;;14.10;80.10;;;;;;20434872;28;20051;-47
2022/03/09 16:21:44;;;;;;;15.75;6.50;;;13.90;80.00;;;;;;20437169;28;20040;-47
2022/03/09 16:31:45;;;;;;;12.23;4.80;;;13.80;79.00;;;;;;20437614;28;20054;-46
2022/03/09 16:41:46;;;;;;;15.63;6.13;;;13.70;80.00;;;;;;20427876;28;20058;-47
2022/03/09 16:51:47;;;;;;;17.17;6.78;;;13.40;81.20;;;;;;20412074;28;20040;-47
2022/03/09 17:01:49;;;;;;;18.17;5.85;;;13.30;79.70;;;;;;20431239;28;20050;-47
2022/03/09 17:11:51;;;;;;;17.00;6.35;;;13.10;80.90;;;;;;20405690;28;20051;-47
2022/03/09 17:21:52;;;;;;;15.65;5.93;;;12.90;81.50;;;;;;20400692;28;20047;-47
2022/03/09 17:31:53;;;;;;;20.60;6.88;;;12.80;81.30;;;;;;20407218;28;20051;-46
2022/03/09 17:41:54;;;;;;;22.25;8.75;;;12.60;84.50;;;;;;20398068;28;20048;-46
2022/03/09 17:51:55;;;;;;;17.85;6.80;;;12.30;83.70;;;;;;20409422;28;20062;-47
2022/03/09 18:01:57;;;;;;;19.83;6.70;;;12.10;86.30;;;;;;20417745;28;20043;-47
2022/03/09 18:12:00;;;;;;;17.42;6.60;;;11.80;86.40;;;;;;20403171;28;20059;-47
2022/03/09 18:22:03;;;;;;;17.05;6.13;;;11.70;88.40;;;;;;20418780;28;20404;-47
2022/03/09 18:32:05;;;;;;;16.70;7.05;;;11.60;89.40;;;;;;20414943;28;20568;-46
2022/03/09 18:42:06;;;;;;;15.63;6.72;;;11.30;89.10;;;;;;20420042;28;20040;-46
2022/03/09 18:52:07;;;;;;;22.75;7.60;;;11.00;90.40;;;;;;20415240;28;20043;-46
2022/03/09 19:02:08;;;;;;;19.90;6.90;;;10.90;90.50;;;;;;20425532;28;20035;-46
2022/03/09 19:12:10;;;;;;;18.77;7.10;;;10.70;89.80;;;;;;20424726;28;20044;-46
2022/03/09 19:22:11;;;;;;;16.33;6.82;;;10.50;91.00;;;;;;20418090;28;20133;-45
2022/03/09 19:32:12;;;;;;;17.15;6.88;;;10.30;89.40;;;;;;20460309;28;20047;-45
2022/03/09 19:42:13;;;;;;;12.63;5.82;;;10.20;90.10;;;;;;20442493;28;20051;-46
2022/03/09 19:52:16;;;;;;;17.58;6.70;;;10.10;90.30;;;;;;20467423;28;20427;-46
2022/03/09 20:02:18;;;;;;;21.30;8.18;;;10.00;90.00;;;;;;20478292;28;20043;-46
2022/03/09 20:12:19;;;;;;;18.50;6.50;;;9.90;90.10;;;;;;20474264;28;20088;-46
2022/03/09 20:22:21;;;;;;;19.05;7.50;;;9.90;90.20;;;;;;20473930;28;20038;-46
2022/03/09 20:32:22;;;;;;;21.33;8.20;;;9.80;89.90;;;;;;20428764;28;20061;-46
2022/03/09 20:42:23;;;;;;;18.23;7.05;;;9.70;90.30;;;;;;20464244;28;20491;-46
2022/03/09 20:52:24;;;;;;;17.63;6.15;;;9.60;90.90;;;;;;20471595;28;20059;-46
2022/03/09 21:02:25;;;;;;;21.60;9.48;;;9.50;91.70;;;;;;20471621;28;20035;-46
2022/03/09 21:12:26;;;;;;;22.67;7.80;;;9.20;92.30;;;;;;20446237;28;20047;-46
2022/03/09 21:22:27;;;;;;;16.45;7.32;;;9.10;92.00;;;;;;20437187;28;20035;-46
2022/03/09 21:32:28;;;;;;;15.65;5.40;;;9.00;92.50;;;;;;20424919;28;20447;-46
2022/03/09 21:42:30;;;;;;;14.73;4.93;;;8.90;91.70;;;;;;20445223;28;20197;-46
2022/03/09 21:52:31;;;;;;;15.48;5.80;;;9.00;90.50;;;;;;20412673;28;20729;-46
2022/03/09 22:02:32;;;;;;;20.23;6.10;;;8.90;90.40;;;;;;20411619;28;20061;-46
2022/03/09 22:12:34;;;;;;;12.40;5.43;;;9.00;89.20;;;;;;20407747;28;20048;-46
2022/03/09 22:22:35;;;;;;;14.38;5.50;;;9.00;87.30;;;;;;20415663;28;20181;-46
2022/03/09 22:32:37;;;;;;;13.77;5.65;;;9.10;87.00;;;;;;20411798;28;20419;-46
2022/03/09 22:42:41;;;;;;;14.15;5.03;;;9.10;86.20;;;;;;20417610;28;20035;-46
2022/03/09 22:52:42;;;;;;;13.98;5.90;;;9.00;86.50;;;;;;20424742;28;20062;-46
2022/03/09 23:02:43;;;;;;;16.17;6.13;;;8.90;90.00;;;;;;20422603;28;20042;-46
2022/03/09 23:12:44;;;;;;;12.15;4.57;;;8.70;90.10;;;;;;20419101;28;20534;-46
2022/03/09 23:22:49;;;;;;;14.13;6.05;;;8.50;89.90;;;;;;20414124;28;20047;-46
2022/03/09 23:32:50;;;;;;;16.55;4.90;;;8.40;90.20;;;;;;20426863;28;20134;-46
2022/03/09 23:42:51;;;;;;;14.65;6.13;;;8.20;90.20;;;;;;20420636;28;20543;-45
2022/03/09 23:52:52;;;;;;;15.20;4.85;;;8.10;90.90;;;;;;20420947;28;20051;-46
